createdAt,value
2018-09-17T00:01:16.072Z,10.97
2018-09-17T00:03:44.520Z,11.77
2018-09-17T00:06:12.820Z,10.87
2018-09-17T00:08:41.172Z,11.00
2018-09-17T00:11:09.462Z,11.67
2018-09-17T00:13:37.756Z,11.67
2018-09-17T00:16:06.187Z,11.40
2018-09-17T00:18:34.476Z,11.93
2018-09-17T00:21:02.799Z,11.10
2018-09-17T00:23:31.198Z,11.53
2018-09-17T00:25:59.471Z,11.90
2018-09-17T00:28:27.766Z,11.60
2018-09-17T00:30:56.078Z,12.13
2018-09-17T00:33:24.350Z,12.63
2018-09-17T00:35:52.651Z,12.93
2018-09-17T00:38:20.991Z,11.47
2018-09-17T00:40:49.295Z,12.00
2018-09-17T00:43:17.572Z,12.27
2018-09-17T00:45:45.897Z,12.50
2018-09-17T00:48:14.182Z,13.20
2018-09-17T00:50:42.448Z,13.43
2018-09-17T00:53:10.747Z,11.80
2018-09-17T00:55:39.021Z,12.40
2018-09-17T00:58:07.302Z,12.40
2018-09-17T01:00:35.600Z,12.17
2018-09-17T01:03:03.929Z,12.80
2018-09-17T01:05:32.217Z,13.00
2018-09-17T01:08:00.492Z,12.17
2018-09-17T01:10:28.807Z,13.00
2018-09-17T01:12:57.145Z,12.93
2018-09-17T01:15:25.437Z,13.27
2018-09-17T01:20:40.809Z,12.77
2018-09-17T01:23:09.116Z,12.77
2018-09-17T01:25:37.396Z,13.43
2018-09-17T01:28:05.665Z,14.10
2018-09-17T01:30:34.057Z,13.23
2018-09-17T01:33:02.312Z,12.83
2018-09-17T01:35:30.607Z,13.50
2018-09-17T01:37:58.980Z,13.43
2018-09-17T01:40:27.249Z,12.80
2018-09-17T01:42:55.557Z,12.90
2018-09-17T01:45:23.900Z,13.50
2018-09-17T01:47:52.183Z,13.30
2018-09-17T01:50:20.468Z,12.80
2018-09-17T01:52:48.936Z,13.03
2018-09-17T01:55:17.247Z,12.57
2018-09-17T01:57:45.558Z,12.47
2018-09-17T02:00:13.905Z,13.23
2018-09-17T02:02:42.219Z,13.10
2018-09-17T02:05:10.516Z,14.00
2018-09-17T02:07:38.827Z,13.30
2018-09-17T02:10:07.118Z,13.60
2018-09-17T02:12:35.380Z,12.90
2018-09-17T02:15:03.716Z,13.73
2018-09-17T02:17:32.107Z,13.57
2018-09-17T02:20:00.391Z,14.10
2018-09-17T02:22:28.722Z,14.53
2018-09-17T02:24:57.085Z,13.67
2018-09-17T02:27:25.550Z,13.47
2018-09-17T02:29:53.882Z,13.77
2018-09-17T02:32:22.193Z,13.70
2018-09-17T02:34:50.469Z,14.37
2018-09-17T02:37:18.846Z,13.87
2018-09-17T02:39:47.148Z,13.43
2018-09-17T02:42:15.444Z,13.70
2018-09-17T02:44:43.771Z,12.83
2018-09-17T02:47:12.065Z,13.33
2018-09-17T02:49:40.404Z,13.03
2018-09-17T02:52:08.720Z,13.80
2018-09-17T02:54:37.012Z,13.90
2018-09-17T02:57:05.327Z,13.93
2018-09-17T02:59:33.665Z,14.33
2018-09-17T03:02:01.984Z,14.63
2018-09-17T03:04:30.282Z,14.27
2018-09-17T03:06:58.564Z,13.57
2018-09-17T03:09:26.862Z,15.00
2018-09-17T03:11:55.143Z,14.70
2018-09-17T03:14:27.578Z,14.20
2018-09-17T03:17:01.423Z,15.93
2018-09-17T03:19:29.727Z,16.40
2018-09-17T03:21:58.024Z,15.30
2018-09-17T03:24:26.340Z,15.83
2018-09-17T03:26:54.661Z,15.20
2018-09-17T03:29:22.936Z,14.90
2018-09-17T03:31:51.297Z,14.97
2018-09-17T03:34:19.653Z,16.27
2018-09-17T03:36:47.943Z,16.00
2018-09-17T03:39:16.263Z,15.80
2018-09-17T03:41:44.540Z,16.17
2018-09-17T03:44:12.894Z,15.50
2018-09-17T03:46:41.210Z,16.30
2018-09-17T03:49:09.497Z,15.37
2018-09-17T03:51:37.803Z,14.47
2018-09-17T03:54:06.089Z,16.03
2018-09-17T03:56:34.421Z,16.20
2018-09-17T03:59:02.700Z,15.27
2018-09-17T04:01:36.714Z,16.57
2018-09-17T04:04:05.012Z,15.23
2018-09-17T04:06:33.288Z,15.13
2018-09-17T04:09:01.571Z,16.50
2018-09-17T04:11:29.848Z,15.03
2018-09-17T04:13:58.156Z,15.63
2018-09-17T04:16:26.430Z,16.27
2018-09-17T04:18:54.719Z,16.43
2018-09-17T04:21:23.004Z,15.83
2018-09-17T04:23:51.332Z,15.80
2018-09-17T04:26:19.656Z,16.60
2018-09-17T04:28:47.943Z,17.50
2018-09-17T04:31:16.229Z,16.73
2018-09-17T04:33:44.534Z,16.77
2018-09-17T04:36:13.427Z,17.40
2018-09-17T04:38:41.728Z,18.60
2018-09-17T04:41:10.007Z,17.10
2018-09-17T04:43:38.313Z,16.73
2018-09-17T04:46:06.651Z,16.53
2018-09-17T04:48:34.956Z,16.90
2018-09-17T04:51:03.289Z,18.43
2018-09-17T04:53:31.571Z,17.50
2018-09-17T04:56:03.417Z,17.10
2018-09-17T04:58:31.712Z,17.33
2018-09-17T05:00:59.996Z,17.37
2018-09-17T05:03:28.295Z,16.93
2018-09-17T05:05:56.572Z,17.37
2018-09-17T05:08:24.875Z,17.67
2018-09-17T05:10:53.143Z,17.43
2018-09-17T05:13:21.537Z,17.50
2018-09-17T05:15:49.804Z,18.30
2018-09-17T05:18:18.075Z,18.20
2018-09-17T05:20:46.551Z,18.00
2018-09-17T05:23:14.780Z,16.90
2018-09-17T05:25:43.053Z,17.67
2018-09-17T05:28:11.358Z,17.53
2018-09-17T05:30:39.730Z,18.20
2018-09-17T05:33:08.036Z,17.60
2018-09-17T05:35:36.324Z,16.33
2018-09-17T05:38:04.602Z,17.37
2018-09-17T05:40:32.917Z,17.53
2018-09-17T05:43:01.194Z,17.20
2018-09-17T05:45:29.501Z,16.97
2018-09-17T05:47:57.798Z,17.23
2018-09-17T05:50:26.097Z,16.40
2018-09-17T05:52:54.425Z,18.53
2018-09-17T05:55:22.724Z,17.00
2018-09-17T05:57:51.060Z,18.40
2018-09-17T06:00:19.400Z,17.20
2018-09-17T06:02:47.742Z,17.03
2018-09-17T06:05:16.114Z,17.20
2018-09-17T06:07:44.456Z,17.93
2018-09-17T06:10:18.634Z,17.90
2018-09-17T06:12:48.166Z,18.90
2018-09-17T06:15:16.933Z,19.63
2018-09-17T06:17:45.296Z,18.87
2018-09-17T06:20:13.600Z,17.43
2018-09-17T06:22:41.904Z,17.63
2018-09-17T06:25:10.172Z,17.07
2018-09-17T06:27:38.524Z,18.10
2018-09-17T06:30:06.843Z,17.47
2018-09-17T06:32:35.223Z,18.40
2018-09-17T06:35:03.610Z,18.27
2018-09-17T06:37:31.937Z,18.97
2018-09-17T06:40:00.247Z,18.30
2018-09-17T06:42:28.565Z,18.23
2018-09-17T06:44:56.921Z,17.70
2018-09-17T06:47:25.200Z,17.77
2018-09-17T06:49:53.488Z,16.70
2018-09-17T06:52:21.828Z,18.23
2018-09-17T06:54:50.125Z,16.70
2018-09-17T06:57:18.427Z,19.20
2018-09-17T06:59:46.756Z,17.97
2018-09-17T07:02:15.045Z,17.00
2018-09-17T07:04:43.366Z,17.23
2018-09-17T07:07:11.671Z,17.47
2018-09-17T07:09:39.980Z,18.23
2018-09-17T07:12:08.281Z,17.37
2018-09-17T07:14:36.588Z,17.13
2018-09-17T07:17:04.899Z,17.77
2018-09-17T07:19:33.179Z,17.43
2018-09-17T07:22:01.453Z,16.77
2018-09-17T07:24:29.771Z,15.60
2018-09-17T07:26:58.055Z,16.60
2018-09-17T07:32:12.755Z,16.73
2018-09-17T07:34:41.217Z,15.83
2018-09-17T07:37:09.492Z,16.80
2018-09-17T07:39:44.636Z,16.07
2018-09-17T07:42:12.967Z,14.60
2018-09-17T07:44:41.257Z,16.30
2018-09-17T07:47:09.565Z,15.73
2018-09-17T07:49:37.847Z,15.30
2018-09-17T07:52:06.188Z,14.67
2018-09-17T07:54:34.498Z,15.33
2018-09-17T07:57:02.805Z,13.90
2018-09-17T07:59:31.147Z,14.70
2018-09-17T08:01:59.434Z,14.00
2018-09-17T08:04:27.760Z,13.50
2018-09-17T08:06:56.038Z,14.70
2018-09-17T08:09:24.328Z,14.10
2018-09-17T08:11:52.696Z,13.80
2018-09-17T08:14:21.069Z,12.60
2018-09-17T08:16:49.350Z,13.33
2018-09-17T08:19:17.624Z,12.87
2018-09-17T08:21:45.958Z,12.60
2018-09-17T08:24:14.231Z,12.97
2018-09-17T08:26:42.517Z,11.73
2018-09-17T08:29:10.808Z,11.53
2018-09-17T08:31:39.124Z,11.10
2018-09-17T08:34:07.391Z,12.20
2018-09-17T08:36:35.686Z,11.77
2018-09-17T08:39:06.134Z,10.30
2018-09-17T08:41:34.458Z,10.73
2018-09-17T08:44:02.770Z,10.50
2018-09-17T08:46:31.062Z,13.57
2018-09-17T08:48:59.383Z,12.80
2018-09-17T08:51:27.683Z,12.03
2018-09-17T08:53:55.985Z,11.73
2018-09-17T08:56:29.786Z,11.30
2018-09-17T08:58:58.085Z,10.53
2018-09-17T09:01:29.746Z,11.50
2018-09-17T09:04:03.464Z,11.70
2018-09-17T09:06:37.069Z,12.50
2018-09-17T09:09:07.331Z,10.77
2018-09-17T09:11:40.930Z,10.30
2018-09-17T09:14:14.522Z,11.53
2018-09-17T09:16:42.804Z,10.53
2018-09-17T09:19:11.091Z,11.30
2018-09-17T09:21:39.442Z,10.53
2018-09-17T09:24:07.782Z,10.60
2018-09-17T09:26:36.081Z,10.07
2018-09-17T09:29:04.360Z,8.73
2018-09-17T09:31:32.847Z,7.47
2018-09-17T09:34:01.125Z,8.50
2018-09-17T09:36:29.401Z,7.60
2018-09-17T09:38:57.695Z,8.00
2018-09-17T09:41:25.978Z,8.30
2018-09-17T09:43:54.287Z,7.93
2018-09-17T09:46:22.587Z,8.53
2018-09-17T09:48:50.875Z,9.07
2018-09-17T09:51:24.852Z,9.20
2018-09-17T09:53:53.159Z,8.67
2018-09-17T09:56:21.439Z,8.90
2018-09-17T09:58:49.716Z,10.00
2018-09-17T10:01:23.471Z,10.03
2018-09-17T10:03:57.115Z,9.03
2018-09-17T10:06:25.428Z,8.87
2018-09-17T10:08:59.028Z,8.83
2018-09-17T10:11:35.909Z,7.87
2018-09-17T10:14:09.550Z,8.93
2018-09-17T10:16:37.907Z,8.37
2018-09-17T10:19:11.525Z,8.53
2018-09-17T10:21:39.802Z,8.10
2018-09-17T10:24:08.093Z,8.73
2018-09-17T10:26:36.428Z,7.93
2018-09-17T10:29:05.080Z,8.07
2018-09-17T10:31:33.396Z,7.27
2018-09-17T10:34:01.667Z,6.90
2018-09-17T10:36:29.974Z,7.80
2018-09-17T10:38:58.268Z,7.17
2018-09-17T10:41:26.552Z,7.20
2018-09-17T10:43:54.863Z,7.00
2018-09-17T10:46:23.135Z,6.87
2018-09-17T10:48:51.425Z,6.17
2018-09-17T10:51:19.736Z,6.90
2018-09-17T10:53:48.029Z,7.00
2018-09-17T10:56:16.308Z,6.97
2018-09-17T10:58:44.624Z,7.87
2018-09-17T11:01:13.031Z,6.80
2018-09-17T11:03:41.304Z,7.13
2018-09-17T11:06:09.592Z,6.90
2018-09-17T11:08:37.869Z,7.43
2018-09-17T11:11:06.516Z,6.60
2018-09-17T11:13:34.800Z,7.10
2018-09-17T11:16:03.123Z,7.40
2018-09-17T11:18:31.430Z,6.87
2018-09-17T11:20:59.708Z,6.00
2018-09-17T11:23:28.027Z,6.80
2018-09-17T11:25:56.299Z,7.10
2018-09-17T11:28:24.662Z,7.00
2018-09-17T11:30:53.008Z,5.93
2018-09-17T11:33:21.284Z,5.87
2018-09-17T11:35:52.599Z,5.87
2018-09-17T11:38:20.868Z,6.00
2018-09-17T11:40:49.311Z,6.27
2018-09-17T11:43:18.610Z,6.40
2018-09-17T11:45:46.911Z,6.00
2018-09-17T11:48:15.257Z,6.27
2018-09-17T11:50:43.509Z,5.83
2018-09-17T11:53:11.808Z,6.07
2018-09-17T11:55:40.117Z,6.50
2018-09-17T11:58:09.119Z,6.10
2018-09-17T12:00:42.732Z,6.27
2018-09-17T12:03:16.287Z,6.00
2018-09-17T12:05:49.900Z,6.43
2018-09-17T12:08:18.921Z,6.27
2018-09-17T12:10:47.329Z,6.83
2018-09-17T12:13:15.616Z,6.90
2018-09-17T12:15:44.399Z,7.33
2018-09-17T12:18:13.688Z,6.20
2018-09-17T12:20:41.987Z,6.53
2018-09-17T12:23:10.626Z,7.40
2018-09-17T12:25:38.935Z,6.47
2018-09-17T12:28:07.508Z,6.43
2018-09-17T12:30:35.784Z,6.87
2018-09-17T12:33:04.071Z,6.40
2018-09-17T12:35:32.407Z,6.23
2018-09-17T12:38:00.765Z,7.00
2018-09-17T12:40:29.076Z,6.50
2018-09-17T12:42:57.360Z,6.70
2018-09-17T12:45:26.176Z,6.60
2018-09-17T12:47:55.031Z,5.90
2018-09-17T12:50:23.580Z,6.47
2018-09-17T12:52:51.879Z,6.43
2018-09-17T12:55:20.236Z,6.90
2018-09-17T12:57:48.636Z,7.17
2018-09-17T13:00:16.932Z,6.80
2018-09-17T13:02:45.244Z,6.20
2018-09-17T13:05:13.633Z,6.07
2018-09-17T13:07:41.944Z,6.47
2018-09-17T13:10:10.298Z,6.17
2018-09-17T13:12:38.585Z,5.80
2018-09-17T13:15:07.223Z,6.03
2018-09-17T13:17:35.787Z,5.90
2018-09-17T13:20:04.084Z,5.67
2018-09-17T13:22:32.391Z,5.80
2018-09-17T13:25:00.922Z,6.37
2018-09-17T13:27:30.051Z,6.30
2018-09-17T13:29:58.296Z,5.97
2018-09-17T13:32:26.612Z,5.43
2018-09-17T13:34:54.923Z,5.33
2018-09-17T13:37:23.282Z,5.30
2018-09-17T13:39:51.649Z,5.10
2018-09-17T13:42:19.915Z,5.67
2018-09-17T13:44:48.252Z,5.27
2018-09-17T13:47:16.529Z,5.70
2018-09-17T13:49:44.882Z,5.40
2018-09-17T13:52:13.173Z,6.00
2018-09-17T13:54:41.477Z,5.47
2018-09-17T13:57:11.929Z,5.67
2018-09-17T13:59:40.214Z,6.23
2018-09-17T14:02:08.527Z,5.90
2018-09-17T14:04:37.874Z,5.43
2018-09-17T14:07:06.155Z,5.90
2018-09-17T14:09:34.445Z,5.60
2018-09-17T14:12:02.717Z,5.53
2018-09-17T14:14:30.987Z,5.83
2018-09-17T14:16:59.267Z,6.00
2018-09-17T14:19:27.566Z,5.80
2018-09-17T14:21:55.827Z,5.47
2018-09-17T14:24:24.104Z,6.40
2018-09-17T14:26:52.396Z,6.00
2018-09-17T14:29:20.683Z,5.50
2018-09-17T14:32:53.247Z,5.50
2018-09-17T14:35:21.586Z,5.00
2018-09-17T14:37:50.702Z,5.27
2018-09-17T14:40:19.022Z,5.37
2018-09-17T14:42:48.399Z,5.30
2018-09-17T14:45:17.173Z,5.90
2018-09-17T14:47:45.509Z,6.03
2018-09-17T14:50:13.791Z,5.40
2018-09-17T14:52:42.076Z,5.90
2018-09-17T14:55:11.085Z,5.30
2018-09-17T14:57:40.225Z,5.70
2018-09-17T15:00:08.573Z,6.03
2018-09-17T15:02:36.836Z,5.20
2018-09-17T15:05:05.163Z,5.70
2018-09-17T15:07:33.433Z,6.50
2018-09-17T15:10:01.829Z,6.00
2018-09-17T15:12:30.128Z,5.70
2018-09-17T15:14:58.414Z,5.33
2018-09-17T15:17:26.660Z,5.53
2018-09-17T15:19:54.938Z,6.73
2018-09-17T15:22:23.347Z,6.17
2018-09-17T15:24:51.532Z,5.90
2018-09-17T15:27:19.832Z,5.80
2018-09-17T15:29:48.111Z,5.80
2018-09-17T15:32:16.456Z,5.67
2018-09-17T15:34:44.677Z,5.83
2018-09-17T15:37:12.993Z,5.77
2018-09-17T15:39:41.317Z,6.10
2018-09-17T15:42:09.711Z,6.27
2018-09-17T15:44:38.052Z,6.00
2018-09-17T15:47:06.368Z,6.20
2018-09-17T15:49:34.664Z,5.87
2018-09-17T15:52:02.999Z,5.80
2018-09-17T15:54:31.238Z,6.60
2018-09-17T15:56:59.550Z,6.13
2018-09-17T15:59:27.827Z,5.80
2018-09-17T16:01:56.129Z,6.20
2018-09-17T16:04:24.411Z,6.00
2018-09-17T16:06:53.140Z,5.67
2018-09-17T16:09:21.688Z,6.03
2018-09-17T16:11:49.958Z,5.60
2018-09-17T16:14:18.236Z,5.87
2018-09-17T16:16:46.487Z,5.70
2018-09-17T16:19:14.777Z,5.57
2018-09-17T16:21:43.051Z,5.70
2018-09-17T16:24:11.332Z,5.97
2018-09-17T16:26:39.634Z,5.20
2018-09-17T16:29:07.888Z,5.43
2018-09-17T16:31:36.171Z,5.50
2018-09-17T16:34:04.427Z,5.47
2018-09-17T16:36:34.753Z,5.37
2018-09-17T16:39:04.040Z,5.83
2018-09-17T16:41:32.439Z,5.53
2018-09-17T16:44:01.712Z,5.20
2018-09-17T16:46:34.228Z,6.17
2018-09-17T16:49:02.571Z,5.17
2018-09-17T16:51:31.207Z,5.60
2018-09-17T16:53:59.613Z,5.90
2018-09-17T16:56:32.719Z,5.23
2018-09-17T16:59:03.096Z,5.50
2018-09-17T17:01:32.464Z,5.47
2018-09-17T17:04:00.759Z,6.00
2018-09-17T17:06:29.025Z,5.57
2018-09-17T17:08:57.280Z,6.00
2018-09-17T17:11:25.575Z,6.20
2018-09-17T17:13:53.849Z,5.20
2018-09-17T17:16:22.253Z,5.53
2018-09-17T17:18:50.611Z,6.07
2018-09-17T17:21:18.828Z,4.97
2018-09-17T17:23:47.093Z,5.07
2018-09-17T17:26:15.350Z,5.13
2018-09-17T17:28:43.816Z,5.30
2018-09-17T17:31:14.165Z,5.27
2018-09-17T17:33:42.552Z,5.33
2018-09-17T17:36:10.899Z,5.20
2018-09-17T17:38:43.848Z,5.40
2018-09-17T17:41:12.104Z,4.80
2018-09-17T17:43:40.449Z,4.80
2018-09-17T17:46:08.901Z,5.33
2018-09-17T17:48:37.116Z,4.83
2018-09-17T17:51:05.592Z,5.33
2018-09-17T17:53:35.605Z,5.60
2018-09-17T17:56:03.951Z,5.43
2018-09-17T17:58:34.364Z,6.27
2018-09-17T18:01:02.840Z,6.23
2018-09-17T18:03:31.016Z,5.57
2018-09-17T18:05:59.300Z,5.90
2018-09-17T18:08:28.624Z,5.63
2018-09-17T18:10:56.897Z,5.03
2018-09-17T18:13:25.891Z,5.17
2018-09-17T18:15:56.223Z,5.20
2018-09-17T18:18:24.487Z,5.67
2018-09-17T18:20:59.364Z,5.93
2018-09-17T18:23:27.617Z,5.70
2018-09-17T18:25:55.884Z,6.03
2018-09-17T18:28:24.224Z,5.93
2018-09-17T18:31:09.124Z,6.17
2018-09-17T18:33:37.440Z,5.67
2018-09-17T18:36:16.168Z,5.80
2018-09-17T18:38:44.514Z,6.90
2018-09-17T18:41:14.241Z,8.53
2018-09-17T18:43:42.543Z,8.97
2018-09-17T18:46:11.511Z,9.07
2018-09-17T18:48:39.929Z,10.67
2018-09-17T18:51:08.303Z,10.10
2018-09-17T18:53:37.057Z,10.17
2018-09-17T18:56:11.459Z,9.77
2018-09-17T18:58:40.076Z,9.30
2018-09-17T19:01:08.474Z,9.83
2018-09-17T19:03:36.755Z,9.23
2018-09-17T19:06:05.115Z,8.43
2018-09-17T19:08:33.523Z,8.60
2018-09-17T19:11:01.799Z,8.70
2018-09-17T19:13:30.093Z,8.70
2018-09-17T19:16:00.309Z,8.47
2018-09-17T19:18:28.611Z,8.68
2018-09-17T19:20:57.059Z,9.50
2018-09-17T19:23:30.691Z,8.87
2018-09-17T19:25:59.013Z,8.97
2018-09-17T19:28:32.720Z,8.47
2018-09-17T19:31:04.193Z,9.17
2018-09-17T19:33:32.518Z,9.90
2018-09-17T19:36:00.908Z,8.83
2018-09-17T19:38:34.536Z,8.60
2018-09-17T19:41:02.831Z,8.67
2018-09-17T19:43:34.403Z,9.77
2018-09-17T19:46:07.909Z,9.63
2018-09-17T19:48:36.207Z,9.27
2018-09-17T19:51:09.989Z,9.30
2018-09-17T19:53:38.327Z,8.97
2018-09-17T19:56:20.487Z,9.07
2018-09-17T19:59:01.171Z,8.80
2018-09-17T20:01:29.635Z,9.43
2018-09-17T20:04:02.193Z,10.50
2018-09-17T20:06:30.457Z,9.60
2018-09-17T20:08:58.726Z,9.50
2018-09-17T20:11:27.013Z,8.83
2018-09-17T20:13:55.347Z,9.30
2018-09-17T20:16:23.732Z,8.60
2018-09-17T20:18:57.827Z,8.47
2018-09-17T20:21:26.133Z,8.50
2018-09-17T20:23:54.398Z,8.53
2018-09-17T20:26:22.787Z,8.30
2018-09-17T20:28:51.094Z,8.37
2018-09-17T20:31:19.404Z,8.00
2018-09-17T20:33:47.663Z,7.70
2018-09-17T20:36:15.964Z,7.00
2018-09-17T20:38:45.483Z,7.70
2018-09-17T20:41:13.671Z,7.40
2018-09-17T20:43:42.081Z,8.00
2018-09-17T20:46:10.368Z,8.33
2018-09-17T20:48:38.719Z,8.50
2018-09-17T20:51:07.039Z,8.90
2018-09-17T20:53:35.332Z,7.93
2018-09-17T20:56:03.720Z,8.27
2018-09-17T20:58:31.957Z,8.10
2018-09-17T21:01:00.368Z,8.60
2018-09-17T21:03:28.572Z,9.40
2018-09-17T21:05:56.843Z,7.83
2018-09-17T21:08:25.145Z,8.90
2018-09-17T21:10:53.424Z,8.70
2018-09-17T21:13:21.780Z,9.00
2018-09-17T21:15:50.319Z,8.23
2018-09-17T21:18:18.621Z,7.97
2018-09-17T21:23:32.900Z,8.90
2018-09-17T21:26:01.184Z,7.97
2018-09-17T21:28:29.480Z,9.20
2018-09-17T21:30:57.849Z,9.13
2018-09-17T21:33:26.079Z,8.47
2018-09-17T21:35:54.380Z,8.00
2018-09-17T21:38:22.695Z,9.00
2018-09-17T21:40:51.045Z,9.37
2018-09-17T21:43:19.308Z,8.70
2018-09-17T21:45:47.580Z,8.80
2018-09-17T21:48:15.947Z,8.03
2018-09-17T21:50:44.232Z,8.50
2018-09-17T21:53:12.578Z,8.83
2018-09-17T21:55:40.876Z,8.50
2018-09-17T21:58:09.180Z,8.03
2018-09-17T22:00:42.799Z,9.20
2018-09-17T22:03:11.125Z,9.03
2018-09-17T22:05:39.427Z,8.30
2018-09-17T22:08:07.703Z,9.30
2018-09-17T22:10:35.976Z,7.93
2018-09-17T22:13:04.270Z,8.07
2018-09-17T22:15:32.552Z,8.90
2018-09-17T22:18:00.856Z,10.20
2018-09-17T22:20:29.162Z,8.43
2018-09-17T22:22:57.470Z,9.70
2018-09-17T22:25:25.744Z,9.17
2018-09-17T22:27:54.036Z,8.60
2018-09-17T22:33:08.655Z,9.20
2018-09-17T22:35:36.956Z,8.53
2018-09-17T22:38:05.236Z,8.90
2018-09-17T22:40:33.559Z,8.60
2018-09-17T22:43:01.852Z,9.37
2018-09-17T22:45:30.122Z,9.60
2018-09-17T22:47:58.428Z,9.77
2018-09-17T22:50:26.953Z,9.33
2018-09-17T22:52:55.247Z,9.00
2018-09-17T22:55:23.522Z,9.53
2018-09-17T22:57:51.823Z,8.83
2018-09-17T23:00:20.079Z,9.23
2018-09-17T23:02:48.332Z,9.80
2018-09-17T23:05:16.658Z,9.37
2018-09-17T23:07:45.011Z,8.90
2018-09-17T23:10:13.274Z,8.60
2018-09-17T23:12:41.561Z,9.70
2018-09-17T23:15:09.869Z,9.00
2018-09-17T23:17:38.195Z,9.40
2018-09-17T23:20:06.483Z,8.13
2018-09-17T23:22:34.784Z,8.70
2018-09-17T23:25:03.059Z,9.13
2018-09-17T23:27:31.370Z,8.93
2018-09-17T23:29:59.635Z,8.97
2018-09-17T23:32:27.926Z,8.50
2018-09-17T23:34:56.199Z,8.90
2018-09-17T23:37:24.471Z,8.70
2018-09-17T23:39:52.780Z,9.60
2018-09-17T23:42:21.067Z,8.70
2018-09-17T23:44:49.364Z,8.43
2018-09-17T23:47:17.632Z,10.30
2018-09-17T23:49:45.927Z,9.60
2018-09-17T23:52:14.229Z,9.60
2018-09-17T23:54:42.515Z,9.13
2018-09-17T23:57:10.808Z,9.33
2018-09-17T23:59:39.072Z,7.83
